Shinsei Maru — JD2188 — position and weather

sailwx.info

Track history (hours):
 
Tides and Currents Weather Stations Pressure Air Temp Water Temp Dewpoint Dewpoint Depression Visibility Wind Speed Wind Dir Waves Ship Positions

Shinsei Maru

Last reported at 2017-Jul-20 10:06 UTC. Time now 2017-Jul-21 00:54 UTC.
Position N 35°32' E 140°02'.

Length 104 m; draft 6.5 m.

Type: Tanker. MMSI: 431301775.

Date/timePositionNaut miles runAvg speedWind from/ knotsBaromVisibWave heightAir tempDewpointWater temp
2017-Jul-20 10:06N 35°32' E 140°02'0 0.1
2017-Jul-20 10:00N 35°32' E 140°02'0 0.1
2017-Jul-20 09:18N 35°32' E 140°02'0 0.1
2017-Jul-20 08:45N 35°32' E 140°02'1 0.7
2017-Jul-20 07:23N 35°32' E 140°03'0 0.0
2017-Jul-20 06:56N 35°32' E 140°03'0 0.0
2017-Jul-20 06:26N 35°32' E 140°03'0 0.0
2017-Jul-20 05:56N 35°32' E 140°03'0 0.0
2017-Jul-20 05:23N 35°32' E 140°03'0 0.0
2017-Jul-20 04:50N 35°32' E 140°03'0 0.0
2017-Jul-20 04:29N 35°32' E 140°03'0 0.0
2017-Jul-20 03:59N 35°32' E 140°03'0 0.0
2017-Jul-20 03:29N 35°32' E 140°03'0 0.0
2017-Jul-20 02:50N 35°32' E 140°03'0 0.0
2017-Jul-20 02:26N 35°32' E 140°03'0 0.2
2017-Jul-20 01:47N 35°32' E 140°03'1 0.5
2017-Jul-19 23:24N 35°32' E 140°02'0 0.1
2017-Jul-19 22:51N 35°32' E 140°02'0 0.1
2017-Jul-19 22:27N 35°32' E 140°02'0 0.1
2017-Jul-19 22:00N 35°32' E 140°02'0 0.0
2017-Jul-19 21:30N 35°32' E 140°02'0 0.0
2017-Jul-19 20:51N 35°32' E 140°02'0 0.0
2017-Jul-19 20:27N 35°32' E 140°02'0 0.0
2017-Jul-19 19:57N 35°32' E 140°02'0 0.0
2017-Jul-19 19:30N 35°32' E 140°02'0 0.0
2017-Jul-19 18:57N 35°32' E 140°02'0 0.0
2017-Jul-19 18:30N 35°32' E 140°02'0 0.0
2017-Jul-19 18:00N 35°32' E 140°02'0 0.0
2017-Jul-19 17:30N 35°32' E 140°02'0 0.0
2017-Jul-19 17:00N 35°32' E 140°02'0 0.0
2017-Jul-19 16:30N 35°32' E 140°02'0 0.0
2017-Jul-19 16:00N 35°32' E 140°02'0 0.0
2017-Jul-19 15:30N 35°32' E 140°02'0 0.0
2017-Jul-19 15:00N 35°32' E 140°02'0 0.0
2017-Jul-19 14:00N 35°32' E 140°02'0 0.1
2017-Jul-19 13:12N 35°32' E 140°02'1 3.9
2017-Jul-19 13:00N 35°32' E 140°01'713.2
2017-Jul-19 12:31N 35°29' E 139°54'713.9
2017-Jul-19 12:01N 35°25' E 139°47'713.4
2017-Jul-19 11:31N 35°18' E 139°44'713.1
2017-Jul-19 11:00N 35°12' E 139°47'713.5
2017-Jul-19 10:30N 35°06' E 139°45'713.2
2017-Jul-19 10:00N 35°01' E 139°39'714.3
2017-Jul-19 09:30N 34°57' E 139°32'1314.0
2017-Jul-19 08:36N 34°49' E 139°20'21912.4
2017-Jul-18 14:54N 33°59' E 135°02'9 1.0
2017-Jul-18 05:38N 34°07' E 135°07'0 3.1
2017-Jul-18 05:29N 34°08' E 135°07'0 0.2
2017-Jul-18 04:58N 34°08' E 135°07'0 0.0
2017-Jul-18 04:28N 34°08' E 135°07'0 0.0
2017-Jul-18 03:55N 34°08' E 135°07'0 0.1
2017-Jul-18 03:25N 34°08' E 135°07'0 0.0
2017-Jul-18 02:58N 34°08' E 135°07'0 0.0
2017-Jul-18 02:25N 34°08' E 135°07'0 0.0
2017-Jul-18 01:58N 34°08' E 135°07'0 0.1
2017-Jul-18 01:28N 34°08' E 135°07'0 0.1
2017-Jul-18 00:58N 34°08' E 135°07'0 0.0
2017-Jul-18 00:28N 34°08' E 135°07'0 0.1
2017-Jul-17 23:55N 34°08' E 135°07'0 0.0
2017-Jul-17 23:25N 34°08' E 135°07'0 0.1
2017-Jul-17 22:55N 34°08' E 135°07'0 0.0
2017-Jul-17 22:28N 34°08' E 135°07'0 0.0
2017-Jul-17 21:58N 34°08' E 135°07'0 0.0
2017-Jul-17 21:28N 34°08' E 135°07'0 0.0
2017-Jul-17 20:55N 34°08' E 135°07'0 0.0
2017-Jul-17 20:28N 34°08' E 135°07'0 0.1
2017-Jul-17 19:58N 34°08' E 135°07'0 0.0
2017-Jul-17 19:25N 34°08' E 135°07'0 0.2
2017-Jul-17 18:55N 34°08' E 135°07'2 3.8
2017-Jul-17 18:30N 34°07' E 135°05'21910.1
2017-Jul-16 20:49N 34°54' E 139°25'411.5
2017-Jul-16 20:30N 34°57' E 139°28'612.2
2017-Jul-16 20:00N 35°01' E 139°34'713.3
2017-Jul-16 19:30N 35°05' E 139°39'713.4
2017-Jul-16 19:00N 35°10' E 139°45'612.4
2017-Jul-16 18:29N 35°17' E 139°45'613.1
2017-Jul-16 18:00N 35°23' E 139°42'612.8
2017-Jul-16 17:30N 35°28' E 139°47'713.3
2017-Jul-16 17:00N 35°31' E 139°54'7 1.4
2017-Jul-16 12:22N 35°31' E 140°02'0 0.1
2017-Jul-16 11:46N 35°31' E 140°03'0 0.0
2017-Jul-16 10:58N 35°31' E 140°03'0 0.0
2017-Jul-16 10:28N 35°31' E 140°03'0 0.0
2017-Jul-16 07:22N 35°31' E 140°03'0 0.1
2017-Jul-16 06:52N 35°31' E 140°02'0 0.3
2017-Jul-16 06:30N 35°31' E 140°02'1 0.1
2017-Jul-15 14:35N 35°31' E 140°01'0 0.0
2017-Jul-15 13:59N 35°31' E 140°01'0 0.0
2017-Jul-15 12:32N 35°31' E 140°01'0 0.0
2017-Jul-15 12:14N 35°31' E 140°01'0 0.0
2017-Jul-15 11:59N 35°31' E 140°01'0 0.0
2017-Jul-15 11:23N 35°31' E 140°01'0 0.0
2017-Jul-15 09:44N 35°31' E 140°01'2 8.9
2017-Jul-15 09:30N 35°31' E 139°59'714.0
2017-Jul-15 09:00N 35°28' E 139°51'714.4
2017-Jul-15 08:30N 35°24' E 139°43'3 5.3
2017-Jul-15 07:59N 35°24' E 139°40'0 0.0
2017-Jul-15 07:29N 35°24' E 139°40'0 0.0
2017-Jul-15 06:59N 35°24' E 139°40'0 0.0
2017-Jul-15 06:29N 35°24' E 139°40'0 0.0
2017-Jul-15 05:59N 35°24' E 139°40'0 0.0
2017-Jul-15 05:29N 35°24' E 139°40'0 0.0
2017-Jul-15 04:59N 35°24' E 139°40'0 0.0
2017-Jul-15 04:28N 35°24' E 139°40'0 0.0
2017-Jul-15 03:55N 35°24' E 139°40'0 0.0
2017-Jul-15 03:28N 35°24' E 139°40'0 0.0
2017-Jul-15 02:58N 35°24' E 139°40'0 0.0
2017-Jul-15 02:28N 35°24' E 139°40'0 0.0
2017-Jul-15 01:58N 35°24' E 139°40'0 0.0
2017-Jul-15 01:28N 35°24' E 139°40'0 0.0
2017-Jul-15 00:58N 35°24' E 139°40'0 0.0
2017-Jul-15 00:28N 35°24' E 139°40'0 0.1
2017-Jul-14 23:58N 35°24' E 139°40'2 4.6
2017-Jul-14 23:29N 35°22' E 139°40'0 0.0
2017-Jul-14 22:59N 35°22' E 139°40'0 0.0
2017-Jul-14 22:29N 35°22' E 139°40'0 0.1
2017-Jul-14 21:59N 35°22' E 139°40'0 0.0
2017-Jul-14 21:29N 35°22' E 139°40'0 0.0
2017-Jul-14 20:59N 35°22' E 139°40'0 0.0
2017-Jul-14 20:29N 35°22' E 139°40'0 0.0
2017-Jul-14 19:59N 35°22' E 139°40'0 0.0
2017-Jul-14 19:29N 35°22' E 139°40'0 0.1
2017-Jul-14 18:59N 35°22' E 139°40'0 0.1
2017-Jul-14 18:29N 35°22' E 139°40'0 0.0
2017-Jul-14 17:56N 35°22' E 139°40'0 0.1
2017-Jul-14 17:29N 35°22' E 139°40'0 0.0
2017-Jul-14 16:59N 35°22' E 139°40'0 0.0
2017-Jul-14 16:29N 35°22' E 139°40'0 0.1
2017-Jul-14 15:59N 35°22' E 139°40'0 0.0
2017-Jul-14 15:29N 35°22' E 139°40'0 0.0
2017-Jul-14 14:59N 35°22' E 139°40'0 0.0
2017-Jul-14 14:29N 35°22' E 139°40'0 0.1
2017-Jul-14 13:59N 35°22' E 139°40'0 0.0
2017-Jul-14 13:29N 35°22' E 139°40'0 0.1
2017-Jul-14 12:59N 35°22' E 139°40'0 0.0
2017-Jul-14 12:29N 35°22' E 139°40'0 0.1
2017-Jul-14 11:59N 35°22' E 139°40'1 2.7
2017-Jul-14 11:30N 35°23' E 139°42'611.8
2017-Jul-14 11:00N 35°27' E 139°47'612.7
2017-Jul-14 10:30N 35°30' E 139°54'7 1.0
2017-Jul-14 03:04N 35°31' E 140°03'0 0.0
2017-Jul-14 02:52N 35°31' E 140°03'0 0.1
2017-Jul-14 02:22N 35°31' E 140°02'0 0.0
2017-Jul-14 01:58N 35°31' E 140°02'0 0.0
2017-Jul-14 01:01N 35°31' E 140°02'0 0.0
2017-Jul-14 00:55N 35°31' E 140°02'0 0.0
2017-Jul-14 00:22N 35°31' E 140°02'0 0.0
2017-Jul-13 23:58N 35°31' E 140°02'0 0.2
2017-Jul-13 23:30N 35°31' E 140°02'3 6.5
2017-Jul-13 23:00N 35°32' E 139°58'1 0.6
2017-Jul-13 21:57N 35°32' E 139°58'0 0.0
2017-Jul-13 21:24N 35°32' E 139°58'0 0.0
2017-Jul-13 20:59N 35°32' E 139°58'0 0.0
2017-Jul-13 20:20N 35°32' E 139°58'0 0.0
2017-Jul-13 19:56N 35°32' E 139°58'0 0.0
2017-Jul-13 19:29N 35°32' E 139°58'0 0.0
2017-Jul-13 18:52N 35°32' E 139°58'0 0.0
2017-Jul-13 18:20N 35°32' E 139°58'0 0.0
2017-Jul-13 17:51N 35°32' E 139°58'0 0.0
2017-Jul-13 17:28N 35°32' E 139°58'0 0.0
2017-Jul-13 16:58N 35°32' E 139°58'0 0.0
2017-Jul-13 16:29N 35°32' E 139°58'0 0.0
2017-Jul-13 16:00N 35°32' E 139°58'0 0.0
2017-Jul-13 15:25N 35°32' E 139°58'0 0.0
2017-Jul-13 15:00N 35°32' E 139°58'0 0.0
2017-Jul-13 14:29N 35°32' E 139°58'0 0.0
2017-Jul-13 13:41N 35°32' E 139°58'0 0.0
2017-Jul-13 12:12N 35°32' E 139°58'0 0.0
2017-Jul-13 11:45N 35°32' E 139°58'0 0.0
2017-Jul-13 07:11N 35°32' E 139°58'0 0.0
2017-Jul-13 06:59N 35°32' E 139°58'0 0.0
2017-Jul-13 06:26N 35°32' E 139°58'0 0.0
2017-Jul-13 05:07N 35°32' E 139°58'0 0.0
2017-Jul-13 04:53N 35°32' E 139°58'0 0.0
2017-Jul-13 04:30N 35°32' E 139°58'0 0.0
2017-Jul-13 03:58N 35°32' E 139°58'0 0.1
2017-Jul-13 03:30N 35°32' E 139°58'0 0.0
2017-Jul-13 03:00N 35°32' E 139°58'0 0.0
2017-Jul-13 01:28N 35°32' E 139°58'0 0.0
2017-Jul-13 00:55N 35°32' E 139°58'0 0.0
2017-Jul-13 00:25N 35°32' E 139°58'0 0.0
2017-Jul-13 00:00N 35°32' E 139°58'0 0.0
2017-Jul-12 23:22N 35°32' E 139°58'0 0.0
2017-Jul-12 22:58N 35°32' E 139°58'0 0.0
2017-Jul-12 22:27N 35°32' E 139°58'0 0.0
2017-Jul-12 22:01N 35°32' E 139°58'0 0.0
2017-Jul-12 21:30N 35°32' E 139°58'0 0.0
2017-Jul-12 20:52N 35°32' E 139°58'0 0.0
2017-Jul-12 19:57N 35°32' E 139°58'0 0.0
2017-Jul-12 15:46N 35°32' E 139°58'0 0.4
2017-Jul-12 15:30N 35°31' E 139°58'510.6
2017-Jul-12 15:00N 35°29' E 139°52'1212.1
2017-Jul-12 14:00N 35°18' E 139°45'611.7
2017-Jul-12 13:30N 35°13' E 139°47'713.7
2017-Jul-12 13:01N 35°06' E 139°45'714.2
2017-Jul-12 12:30N 35°01' E 139°38'713.9
2017-Jul-12 12:00N 34°57' E 139°32'229 7.7
2017-Jul-11 06:29N 34°02' E 135°03'612.5
2017-Jul-11 06:01N 34°07' E 135°06'1 2.2
2017-Jul-11 05:25N 34°07' E 135°08'0 0.0
2017-Jul-11 04:55N 34°07' E 135°08'0 0.0
2017-Jul-11 04:25N 34°07' E 135°08'0 0.0
2017-Jul-11 03:55N 34°07' E 135°08'0 0.0
2017-Jul-11 03:19N 34°07' E 135°08'0 0.0
2017-Jul-11 02:55N 34°07' E 135°08'0 0.0
2017-Jul-11 02:25N 34°07' E 135°08'0 0.0
2017-Jul-11 01:55N 34°07' E 135°08'0 0.0
2017-Jul-11 01:25N 34°07' E 135°08'0 0.0
2017-Jul-11 00:55N 34°07' E 135°08'0 0.7
2017-Jul-11 00:22N 34°07' E 135°08'2 3.8
2017-Jul-10 23:55N 34°09' E 135°07'0 0.0
2017-Jul-10 22:49N 34°09' E 135°07'0 0.0
2017-Jul-10 22:28N 34°09' E 135°07'0 0.0
2017-Jul-10 21:58N 34°09' E 135°07'0 0.0
2017-Jul-10 21:28N 34°09' E 135°07'0 0.0
2017-Jul-10 20:58N 34°09' E 135°07'0 0.0
2017-Jul-10 20:28N 34°09' E 135°07'0 0.0
2017-Jul-10 19:58N 34°09' E 135°07'0 0.0
2017-Jul-10 19:28N 34°09' E 135°07'0 0.0
2017-Jul-10 18:13N 34°09' E 135°07'0 0.0
2017-Jul-10 17:58N 34°09' E 135°07'0 0.1
2017-Jul-10 17:22N 34°09' E 135°07'0 0.1
2017-Jul-10 16:58N 34°09' E 135°08'0 0.1
2017-Jul-10 16:28N 34°09' E 135°08'0 0.0
2017-Jul-10 15:58N 34°09' E 135°08'0 0.0
2017-Jul-10 15:28N 34°09' E 135°08'0 0.0
2017-Jul-10 14:58N 34°09' E 135°08'0 0.0
2017-Jul-10 14:28N 34°09' E 135°08'0 0.0
2017-Jul-10 13:58N 34°09' E 135°08'0 0.0
2017-Jul-10 13:28N 34°09' E 135°08'0 0.0
2017-Jul-10 12:58N 34°09' E 135°08'0 0.0
2017-Jul-10 12:28N 34°09' E 135°08'0 0.0
2017-Jul-10 11:58N 34°09' E 135°08'0 0.0
2017-Jul-10 11:28N 34°09' E 135°08'0 0.0
2017-Jul-10 10:58N 34°09' E 135°08'0 0.0
2017-Jul-10 10:28N 34°09' E 135°08'  
Track history (hours):
 
Tides and Currents Weather Stations Pressure Air Temp Water Temp Dewpoint Dewpoint Depression Visibility Wind Speed Wind Dir Waves Ship Positions

Shinsei Maru

Last reported at 2017-Jul-20 10:06 UTC. Time now 2017-Jul-21 00:54 UTC.
Position N 35°32' E 140°02'.

Length 104 m; draft 6.5 m.

Type: Tanker. MMSI: 431301775.

Date/timePositionNaut miles runAvg speedWind from/ knotsBaromVisibWave heightAir tempDewpointWater temp
2017-Jul-20 10:06N 35°32' E 140°02'0 0.1
2017-Jul-20 10:00N 35°32' E 140°02'0 0.1
2017-Jul-20 09:18N 35°32' E 140°02'0 0.1
2017-Jul-20 08:45N 35°32' E 140°02'1 0.7
2017-Jul-20 07:23N 35°32' E 140°03'0 0.0
2017-Jul-20 06:56N 35°32' E 140°03'0 0.0
2017-Jul-20 06:26N 35°32' E 140°03'0 0.0
2017-Jul-20 05:56N 35°32' E 140°03'0 0.0
2017-Jul-20 05:23N 35°32' E 140°03'0 0.0
2017-Jul-20 04:50N 35°32' E 140°03'0 0.0
2017-Jul-20 04:29N 35°32' E 140°03'0 0.0
2017-Jul-20 03:59N 35°32' E 140°03'0 0.0
2017-Jul-20 03:29N 35°32' E 140°03'0 0.0
2017-Jul-20 02:50N 35°32' E 140°03'0 0.0
2017-Jul-20 02:26N 35°32' E 140°03'0 0.2
2017-Jul-20 01:47N 35°32' E 140°03'1 0.5
2017-Jul-19 23:24N 35°32' E 140°02'0 0.1
2017-Jul-19 22:51N 35°32' E 140°02'0 0.1
2017-Jul-19 22:27N 35°32' E 140°02'0 0.1
2017-Jul-19 22:00N 35°32' E 140°02'0 0.0
2017-Jul-19 21:30N 35°32' E 140°02'0 0.0
2017-Jul-19 20:51N 35°32' E 140°02'0 0.0
2017-Jul-19 20:27N 35°32' E 140°02'0 0.0
2017-Jul-19 19:57N 35°32' E 140°02'0 0.0
2017-Jul-19 19:30N 35°32' E 140°02'0 0.0
2017-Jul-19 18:57N 35°32' E 140°02'0 0.0
2017-Jul-19 18:30N 35°32' E 140°02'0 0.0
2017-Jul-19 18:00N 35°32' E 140°02'0 0.0
2017-Jul-19 17:30N 35°32' E 140°02'0 0.0
2017-Jul-19 17:00N 35°32' E 140°02'0 0.0
2017-Jul-19 16:30N 35°32' E 140°02'0 0.0
2017-Jul-19 16:00N 35°32' E 140°02'0 0.0
2017-Jul-19 15:30N 35°32' E 140°02'0 0.0
2017-Jul-19 15:00N 35°32' E 140°02'0 0.0
2017-Jul-19 14:00N 35°32' E 140°02'0 0.1
2017-Jul-19 13:12N 35°32' E 140°02'1 3.9
2017-Jul-19 13:00N 35°32' E 140°01'713.2
2017-Jul-19 12:31N 35°29' E 139°54'713.9
2017-Jul-19 12:01N 35°25' E 139°47'713.4
2017-Jul-19 11:31N 35°18' E 139°44'713.1
2017-Jul-19 11:00N 35°12' E 139°47'713.5
2017-Jul-19 10:30N 35°06' E 139°45'713.2
2017-Jul-19 10:00N 35°01' E 139°39'714.3
2017-Jul-19 09:30N 34°57' E 139°32'1314.0
2017-Jul-19 08:36N 34°49' E 139°20'21912.4
2017-Jul-18 14:54N 33°59' E 135°02'9 1.0
2017-Jul-18 05:38N 34°07' E 135°07'0 3.1
2017-Jul-18 05:29N 34°08' E 135°07'0 0.2
2017-Jul-18 04:58N 34°08' E 135°07'0 0.0
2017-Jul-18 04:28N 34°08' E 135°07'0 0.0
2017-Jul-18 03:55N 34°08' E 135°07'0 0.1
2017-Jul-18 03:25N 34°08' E 135°07'0 0.0
2017-Jul-18 02:58N 34°08' E 135°07'0 0.0
2017-Jul-18 02:25N 34°08' E 135°07'0 0.0
2017-Jul-18 01:58N 34°08' E 135°07'0 0.1
2017-Jul-18 01:28N 34°08' E 135°07'0 0.1
2017-Jul-18 00:58N 34°08' E 135°07'0 0.0
2017-Jul-18 00:28N 34°08' E 135°07'0 0.1
2017-Jul-17 23:55N 34°08' E 135°07'0 0.0
2017-Jul-17 23:25N 34°08' E 135°07'0 0.1
2017-Jul-17 22:55N 34°08' E 135°07'0 0.0
2017-Jul-17 22:28N 34°08' E 135°07'0 0.0
2017-Jul-17 21:58N 34°08' E 135°07'0 0.0
2017-Jul-17 21:28N 34°08' E 135°07'0 0.0
2017-Jul-17 20:55N 34°08' E 135°07'0 0.0
2017-Jul-17 20:28N 34°08' E 135°07'0 0.1
2017-Jul-17 19:58N 34°08' E 135°07'0 0.0
2017-Jul-17 19:25N 34°08' E 135°07'0 0.2
2017-Jul-17 18:55N 34°08' E 135°07'2 3.8
2017-Jul-17 18:30N 34°07' E 135°05'21910.1
2017-Jul-16 20:49N 34°54' E 139°25'411.5
2017-Jul-16 20:30N 34°57' E 139°28'612.2
2017-Jul-16 20:00N 35°01' E 139°34'713.3
2017-Jul-16 19:30N 35°05' E 139°39'713.4
2017-Jul-16 19:00N 35°10' E 139°45'612.4
2017-Jul-16 18:29N 35°17' E 139°45'613.1
2017-Jul-16 18:00N 35°23' E 139°42'612.8
2017-Jul-16 17:30N 35°28' E 139°47'713.3
2017-Jul-16 17:00N 35°31' E 139°54'7 1.4
2017-Jul-16 12:22N 35°31' E 140°02'0 0.1
2017-Jul-16 11:46N 35°31' E 140°03'0 0.0
2017-Jul-16 10:58N 35°31' E 140°03'0 0.0
2017-Jul-16 10:28N 35°31' E 140°03'0 0.0
2017-Jul-16 07:22N 35°31' E 140°03'0 0.1
2017-Jul-16 06:52N 35°31' E 140°02'0 0.3
2017-Jul-16 06:30N 35°31' E 140°02'1 0.1
2017-Jul-15 14:35N 35°31' E 140°01'0 0.0
2017-Jul-15 13:59N 35°31' E 140°01'0 0.0
2017-Jul-15 12:32N 35°31' E 140°01'0 0.0
2017-Jul-15 12:14N 35°31' E 140°01'0 0.0
2017-Jul-15 11:59N 35°31' E 140°01'0 0.0
2017-Jul-15 11:23N 35°31' E 140°01'0 0.0
2017-Jul-15 09:44N 35°31' E 140°01'2 8.9
2017-Jul-15 09:30N 35°31' E 139°59'714.0
2017-Jul-15 09:00N 35°28' E 139°51'714.4
2017-Jul-15 08:30N 35°24' E 139°43'3 5.3
2017-Jul-15 07:59N 35°24' E 139°40'0 0.0
2017-Jul-15 07:29N 35°24' E 139°40'0 0.0
2017-Jul-15 06:59N 35°24' E 139°40'0 0.0
2017-Jul-15 06:29N 35°24' E 139°40'0 0.0
2017-Jul-15 05:59N 35°24' E 139°40'0 0.0
2017-Jul-15 05:29N 35°24' E 139°40'0 0.0
2017-Jul-15 04:59N 35°24' E 139°40'0 0.0
2017-Jul-15 04:28N 35°24' E 139°40'0 0.0
2017-Jul-15 03:55N 35°24' E 139°40'0 0.0
2017-Jul-15 03:28N 35°24' E 139°40'0 0.0
2017-Jul-15 02:58N 35°24' E 139°40'0 0.0
2017-Jul-15 02:28N 35°24' E 139°40'0 0.0
2017-Jul-15 01:58N 35°24' E 139°40'0 0.0
2017-Jul-15 01:28N 35°24' E 139°40'0 0.0
2017-Jul-15 00:58N 35°24' E 139°40'0 0.0
2017-Jul-15 00:28N 35°24' E 139°40'0 0.1
2017-Jul-14 23:58N 35°24' E 139°40'2 4.6
2017-Jul-14 23:29N 35°22' E 139°40'0 0.0
2017-Jul-14 22:59N 35°22' E 139°40'0 0.0
2017-Jul-14 22:29N 35°22' E 139°40'0 0.1
2017-Jul-14 21:59N 35°22' E 139°40'0 0.0
2017-Jul-14 21:29N 35°22' E 139°40'0 0.0
2017-Jul-14 20:59N 35°22' E 139°40'0 0.0
2017-Jul-14 20:29N 35°22' E 139°40'0 0.0
2017-Jul-14 19:59N 35°22' E 139°40'0 0.0
2017-Jul-14 19:29N 35°22' E 139°40'0 0.1
2017-Jul-14 18:59N 35°22' E 139°40'0 0.1
2017-Jul-14 18:29N 35°22' E 139°40'0 0.0
2017-Jul-14 17:56N 35°22' E 139°40'0 0.1
2017-Jul-14 17:29N 35°22' E 139°40'0 0.0
2017-Jul-14 16:59N 35°22' E 139°40'0 0.0
2017-Jul-14 16:29N 35°22' E 139°40'0 0.1
2017-Jul-14 15:59N 35°22' E 139°40'0 0.0
2017-Jul-14 15:29N 35°22' E 139°40'0 0.0
2017-Jul-14 14:59N 35°22' E 139°40'0 0.0
2017-Jul-14 14:29N 35°22' E 139°40'0 0.1
2017-Jul-14 13:59N 35°22' E 139°40'0 0.0
2017-Jul-14 13:29N 35°22' E 139°40'0 0.1
2017-Jul-14 12:59N 35°22' E 139°40'0 0.0
2017-Jul-14 12:29N 35°22' E 139°40'0 0.1
2017-Jul-14 11:59N 35°22' E 139°40'1 2.7
2017-Jul-14 11:30N 35°23' E 139°42'611.8
2017-Jul-14 11:00N 35°27' E 139°47'612.7
2017-Jul-14 10:30N 35°30' E 139°54'7 1.0
2017-Jul-14 03:04N 35°31' E 140°03'0 0.0
2017-Jul-14 02:52N 35°31' E 140°03'0 0.1
2017-Jul-14 02:22N 35°31' E 140°02'0 0.0
2017-Jul-14 01:58N 35°31' E 140°02'0 0.0
2017-Jul-14 01:01N 35°31' E 140°02'0 0.0
2017-Jul-14 00:55N 35°31' E 140°02'0 0.0
2017-Jul-14 00:22N 35°31' E 140°02'0 0.0
2017-Jul-13 23:58N 35°31' E 140°02'0 0.2
2017-Jul-13 23:30N 35°31' E 140°02'3 6.5
2017-Jul-13 23:00N 35°32' E 139°58'1 0.6
2017-Jul-13 21:57N 35°32' E 139°58'0 0.0
2017-Jul-13 21:24N 35°32' E 139°58'0 0.0
2017-Jul-13 20:59N 35°32' E 139°58'0 0.0
2017-Jul-13 20:20N 35°32' E 139°58'0 0.0
2017-Jul-13 19:56N 35°32' E 139°58'0 0.0
2017-Jul-13 19:29N 35°32' E 139°58'0 0.0
2017-Jul-13 18:52N 35°32' E 139°58'0 0.0
2017-Jul-13 18:20N 35°32' E 139°58'0 0.0
2017-Jul-13 17:51N 35°32' E 139°58'0 0.0
2017-Jul-13 17:28N 35°32' E 139°58'0 0.0
2017-Jul-13 16:58N 35°32' E 139°58'0 0.0
2017-Jul-13 16:29N 35°32' E 139°58'0 0.0
2017-Jul-13 16:00N 35°32' E 139°58'0 0.0
2017-Jul-13 15:25N 35°32' E 139°58'0 0.0
2017-Jul-13 15:00N 35°32' E 139°58'0 0.0
2017-Jul-13 14:29N 35°32' E 139°58'0 0.0
2017-Jul-13 13:41N 35°32' E 139°58'0 0.0
2017-Jul-13 12:12N 35°32' E 139°58'0 0.0
2017-Jul-13 11:45N 35°32' E 139°58'0 0.0
2017-Jul-13 07:11N 35°32' E 139°58'0 0.0
2017-Jul-13 06:59N 35°32' E 139°58'0 0.0
2017-Jul-13 06:26N 35°32' E 139°58'0 0.0
2017-Jul-13 05:07N 35°32' E 139°58'0 0.0
2017-Jul-13 04:53N 35°32' E 139°58'0 0.0
2017-Jul-13 04:30N 35°32' E 139°58'0 0.0
2017-Jul-13 03:58N 35°32' E 139°58'0 0.1
2017-Jul-13 03:30N 35°32' E 139°58'0 0.0
2017-Jul-13 03:00N 35°32' E 139°58'0 0.0
2017-Jul-13 01:28N 35°32' E 139°58'0 0.0
2017-Jul-13 00:55N 35°32' E 139°58'0 0.0
2017-Jul-13 00:25N 35°32' E 139°58'0 0.0
2017-Jul-13 00:00N 35°32' E 139°58'0 0.0
2017-Jul-12 23:22N 35°32' E 139°58'0 0.0
2017-Jul-12 22:58N 35°32' E 139°58'0 0.0
2017-Jul-12 22:27N 35°32' E 139°58'0 0.0
2017-Jul-12 22:01N 35°32' E 139°58'0 0.0
2017-Jul-12 21:30N 35°32' E 139°58'0 0.0
2017-Jul-12 20:52N 35°32' E 139°58'0 0.0
2017-Jul-12 19:57N 35°32' E 139°58'0 0.0
2017-Jul-12 15:46N 35°32' E 139°58'0 0.4
2017-Jul-12 15:30N 35°31' E 139°58'510.6
2017-Jul-12 15:00N 35°29' E 139°52'1212.1
2017-Jul-12 14:00N 35°18' E 139°45'611.7
2017-Jul-12 13:30N 35°13' E 139°47'713.7
2017-Jul-12 13:01N 35°06' E 139°45'714.2
2017-Jul-12 12:30N 35°01' E 139°38'713.9
2017-Jul-12 12:00N 34°57' E 139°32'229 7.7
2017-Jul-11 06:29N 34°02' E 135°03'612.5
2017-Jul-11 06:01N 34°07' E 135°06'1 2.2
2017-Jul-11 05:25N 34°07' E 135°08'0 0.0
2017-Jul-11 04:55N 34°07' E 135°08'0 0.0
2017-Jul-11 04:25N 34°07' E 135°08'0 0.0
2017-Jul-11 03:55N 34°07' E 135°08'0 0.0
2017-Jul-11 03:19N 34°07' E 135°08'0 0.0
2017-Jul-11 02:55N 34°07' E 135°08'0 0.0
2017-Jul-11 02:25N 34°07' E 135°08'0 0.0
2017-Jul-11 01:55N 34°07' E 135°08'0 0.0
2017-Jul-11 01:25N 34°07' E 135°08'0 0.0
2017-Jul-11 00:55N 34°07' E 135°08'0 0.7
2017-Jul-11 00:22N 34°07' E 135°08'2 3.8
2017-Jul-10 23:55N 34°09' E 135°07'0 0.0
2017-Jul-10 22:49N 34°09' E 135°07'0 0.0
2017-Jul-10 22:28N 34°09' E 135°07'0 0.0
2017-Jul-10 21:58N 34°09' E 135°07'0 0.0
2017-Jul-10 21:28N 34°09' E 135°07'0 0.0
2017-Jul-10 20:58N 34°09' E 135°07'0 0.0
2017-Jul-10 20:28N 34°09' E 135°07'0 0.0
2017-Jul-10 19:58N 34°09' E 135°07'0 0.0
2017-Jul-10 19:28N 34°09' E 135°07'0 0.0
2017-Jul-10 18:13N 34°09' E 135°07'0 0.0
2017-Jul-10 17:58N 34°09' E 135°07'0 0.1
2017-Jul-10 17:22N 34°09' E 135°07'0 0.1
2017-Jul-10 16:58N 34°09' E 135°08'0 0.1
2017-Jul-10 16:28N 34°09' E 135°08'0 0.0
2017-Jul-10 15:58N 34°09' E 135°08'0 0.0
2017-Jul-10 15:28N 34°09' E 135°08'0 0.0
2017-Jul-10 14:58N 34°09' E 135°08'0 0.0
2017-Jul-10 14:28N 34°09' E 135°08'0 0.0
2017-Jul-10 13:58N 34°09' E 135°08'0 0.0
2017-Jul-10 13:28N 34°09' E 135°08'0 0.0
2017-Jul-10 12:58N 34°09' E 135°08'0 0.0
2017-Jul-10 12:28N 34°09' E 135°08'0 0.0
2017-Jul-10 11:58N 34°09' E 135°08'0 0.0
2017-Jul-10 11:28N 34°09' E 135°08'0 0.0
2017-Jul-10 10:58N 34°09' E 135°08'0 0.0
2017-Jul-10 10:28N 34°09' E 135°08'  

Dump ship's entire track history